Time,TemperatureF,DewpointF,PressureIn,WindDirection,WindDirectionDegrees,WindSpeedMPH,WindSpeedGustMPH,Humidity,HourlyPrecipIn,Conditions,Clouds,dailyrainin,SoftwareType,DateUTC
2013-04-23 00:00:00,65.1,64.3,30.09,NNW,346,6.1,6.1,97,0.00,,---,0.00,VWS V14.01,2013-04-23 04:00:00,
2013-04-23 00:01:00,64.6,63.8,30.09,North,3,5.1,6.5,97,0.00,,---,0.00,VWS V14.01,2013-04-23 04:01:00,
2013-04-23 00:06:00,65.1,64.3,30.08,North,353,6.3,7.3,97,0.00,,---,0.00,VWS V14.01,2013-04-23 04:06:00,
2013-04-23 00:11:00,64.5,63.7,30.08,North,3,4.5,5.0,97,0.00,,---,0.00,VWS V14.01,2013-04-23 04:11:00,
2013-04-23 00:16:00,65.1,64.3,30.09,NNE,14,4.1,5.2,97,0.00,,---,0.00,VWS V14.01,2013-04-23 04:16:00,
2013-04-23 00:21:00,64.8,64.0,30.08,NNE,14,3.7,5.2,97,0.00,,---,0.00,VWS V14.01,2013-04-23 04:21:00,
2013-04-23 00:26:00,65.0,64.2,30.08,NNE,22,5.2,5.2,97,0.00,,---,0.00,VWS V14.01,2013-04-23 04:26:00,
2013-04-23 00:31:00,65.0,64.2,30.08,North,3,3.9,5.7,97,0.00,,---,0.00,VWS V14.01,2013-04-23 04:31:00,
2013-04-23 00:36:00,64.7,63.9,30.08,NNE,14,3.6,4.0,97,0.00,,---,0.00,VWS V14.01,2013-04-23 04:36:00,
2013-04-23 00:41:00,64.8,64.1,30.08,North,1,5.2,5.3,97,0.00,,---,0.00,VWS V14.01,2013-04-23 04:41:00,
2013-04-23 00:46:00,64.1,63.3,30.08,NNE,13,2.7,5.3,97,0.00,,---,0.00,VWS V14.01,2013-04-23 04:46:00,
2013-04-23 00:51:00,65.2,64.4,30.08,North,352,4.3,5.2,97,0.00,,---,0.00,VWS V14.01,2013-04-23 04:51:00,
2013-04-23 00:56:00,64.7,64.0,30.08,North,354,2.5,2.7,97,0.00,,---,0.00,VWS V14.01,2013-04-23 04:56:00,
2013-04-23 01:01:00,64.9,64.2,30.08,NNW,343,4.1,6.0,97,0.00,,---,0.00,VWS V14.01,2013-04-23 05:01:00,
2013-04-23 01:06:00,64.7,64.0,30.07,NNW,343,7.7,7.9,97,0.00,,---,0.00,VWS V14.01,2013-04-23 05:06:00,
2013-04-23 01:11:00,64.7,64.0,30.08,North,350,6.8,7.4,98,0.00,,---,0.00,VWS V14.01,2013-04-23 05:11:00,
2013-04-23 01:16:00,64.2,63.5,30.07,North,8,4.5,7.0,98,0.00,,---,0.00,VWS V14.01,2013-04-23 05:16:00,
2013-04-23 01:21:00,65.3,64.6,30.07,North,8,4.7,5.8,98,0.00,,---,0.00,VWS V14.01,2013-04-23 05:21:00,
2013-04-23 01:26:00,65.0,64.3,30.07,North,1,3.9,4.7,98,0.00,,---,0.00,VWS V14.01,2013-04-23 05:26:00,
2013-04-23 01:31:00,64.6,63.9,30.07,North,4,4.9,5.8,98,0.00,,---,0.00,VWS V14.01,2013-04-23 05:31:00,
2013-04-23 01:36:00,65.0,64.3,30.07,North,8,2.1,6.6,98,0.00,,---,0.00,VWS V14.01,2013-04-23 05:36:00,
2013-04-23 01:41:00,65.1,64.4,30.07,North,349,2.6,3.1,98,0.00,,---,0.00,VWS V14.01,2013-04-23 05:41:00,
2013-04-23 01:46:00,65.0,64.3,30.07,North,359,5.1,6.3,98,0.00,,---,0.00,VWS V14.01,2013-04-23 05:46:00,
2013-04-23 01:51:00,65.0,64.3,30.07,NNW,346,6.9,8.8,98,0.00,,---,0.00,VWS V14.01,2013-04-23 05:51:00,
2013-04-23 01:56:00,64.6,63.9,30.07,NNW,343,8.3,8.5,98,0.00,,---,0.00,VWS V14.01,2013-04-23 05:56:00,
2013-04-23 02:01:00,65.0,64.3,30.07,NNW,347,5.2,5.4,98,0.00,,---,0.00,VWS V14.01,2013-04-23 06:01:00,
2013-04-23 02:06:00,63.8,63.2,30.07,North,350,2.6,5.2,98,0.00,,---,0.00,VWS V14.01,2013-04-23 06:06:00,
2013-04-23 02:11:00,63.9,63.3,30.07,North,0,6.3,9.7,98,0.00,,---,0.00,VWS V14.01,2013-04-23 06:11:00,
2013-04-23 02:16:00,63.8,63.3,30.06,NNW,345,7.1,10.2,98,0.00,,---,0.00,VWS V14.01,2013-04-23 06:16:00,
2013-04-23 02:21:00,64.7,64.2,30.06,North,356,7.0,11.9,98,0.00,,---,0.00,VWS V14.01,2013-04-23 06:21:00,
2013-04-23 02:26:00,64.2,63.7,30.05,North,357,6.1,7.1,98,0.00,,---,0.00,VWS V14.01,2013-04-23 06:26:00,
2013-04-23 02:31:00,63.6,63.1,30.06,NW,322,4.5,4.7,98,0.00,,---,0.00,VWS V14.01,2013-04-23 06:31:00,
2013-04-23 02:36:00,64.3,63.8,30.05,North,349,6.3,6.3,98,0.00,,---,0.00,VWS V14.01,2013-04-23 06:36:00,
2013-04-23 02:41:00,64.0,63.6,30.05,NNW,343,5.7,6.5,98,0.00,,---,0.00,VWS V14.01,2013-04-23 06:41:00,
2013-04-23 02:46:00,64.6,64.2,30.05,NNW,342,6.2,7.3,99,0.00,,---,0.00,VWS V14.01,2013-04-23 06:46:00,
2013-04-23 02:51:00,64.3,63.9,30.05,NNE,13,4.3,7.8,99,0.00,,---,0.00,VWS V14.01,2013-04-23 06:51:00,
2013-04-23 02:56:00,63.2,62.8,30.04,North,352,7.5,7.7,99,0.00,,---,0.00,VWS V14.01,2013-04-23 06:56:00,
2013-04-23 03:01:00,63.6,63.3,30.04,North,350,5.4,8.0,99,0.00,,---,0.00,VWS V14.01,2013-04-23 07:01:00,
2013-04-23 03:06:00,63.5,63.2,30.04,North,353,4.6,4.8,99,0.00,,---,0.00,VWS V14.01,2013-04-23 07:06:00,
2013-04-23 03:11:00,63.0,62.7,30.04,North,352,4.5,6.2,99,0.00,,---,0.00,VWS V14.01,2013-04-23 07:11:00,
2013-04-23 03:16:00,63.6,63.3,30.04,NNW,339,7.0,7.8,99,0.00,,---,0.00,VWS V14.01,2013-04-23 07:16:00,
2013-04-23 03:21:00,64.0,63.8,30.04,North,349,3.0,3.3,99,0.00,,---,0.00,VWS V14.01,2013-04-23 07:21:00,
2013-04-23 03:26:00,63.9,63.7,30.04,NNE,15,5.0,5.8,99,0.00,,---,0.00,VWS V14.01,2013-04-23 07:26:00,
2013-04-23 03:31:00,63.8,63.6,30.04,NW,305,4.0,4.3,99,0.00,,---,0.00,VWS V14.01,2013-04-23 07:31:00,
2013-04-23 03:36:00,63.4,63.2,30.03,North,359,3.4,3.4,99,0.00,,---,0.00,VWS V14.01,2013-04-23 07:36:00,
2013-04-23 03:41:00,63.2,63.1,30.03,NNW,345,1.9,3.5,100,0.00,,---,0.00,VWS V14.01,2013-04-23 07:41:00,
2013-04-23 03:46:00,63.5,63.4,30.03,North,356,4.5,5.1,100,0.00,,---,0.00,VWS V14.01,2013-04-23 07:46:00,
2013-04-23 03:51:00,63.4,63.3,30.03,NNE,13,3.7,5.2,100,0.00,,---,0.00,VWS V14.01,2013-04-23 07:51:00,
2013-04-23 03:56:00,62.9,62.8,30.03,North,353,6.5,7.5,100,0.00,,---,0.00,VWS V14.01,2013-04-23 07:56:00,
2013-04-23 04:01:00,63.2,63.2,30.03,NW,323,4.8,4.8,100,0.00,,---,0.00,VWS V14.01,2013-04-23 08:01:00,
2013-04-23 04:06:00,62.9,62.9,30.03,North,349,5.2,6.5,100,0.00,,---,0.00,VWS V14.01,2013-04-23 08:06:00,
2013-04-23 04:11:00,63.1,63.1,30.03,North,352,6.2,6.6,100,0.00,,---,0.00,VWS V14.01,2013-04-23 08:11:00,
2013-04-23 04:16:00,63.1,63.1,30.03,North,356,4.7,4.7,100,0.00,,---,0.00,VWS V14.01,2013-04-23 08:16:00,
2013-04-23 04:21:00,62.5,62.5,30.03,NNW,328,6.5,6.7,100,0.00,,---,0.00,VWS V14.01,2013-04-23 08:21:00,
2013-04-23 04:26:00,63.5,63.5,30.03,NW,316,3.9,4.7,100,0.00,,---,0.00,VWS V14.01,2013-04-23 08:26:00,
2013-04-23 04:31:00,63.3,63.3,30.03,North,357,2.8,5.2,100,0.00,,---,0.00,VWS V14.01,2013-04-23 08:31:00,
2013-04-23 04:36:00,62.5,62.5,30.03,North,353,3.2,3.2,100,0.00,,---,0.00,VWS V14.01,2013-04-23 08:36:00,
2013-04-23 04:41:00,63.0,63.0,30.03,NNW,328,5.8,6.5,100,0.00,,---,0.00,VWS V14.01,2013-04-23 08:41:00,
2013-04-23 04:46:00,62.9,62.9,30.03,North,0,6.3,6.3,100,0.00,,---,0.00,VWS V14.01,2013-04-23 08:46:00,
2013-04-23 04:51:00,62.7,62.7,30.03,North,11,5.2,5.8,100,0.00,,---,0.00,VWS V14.01,2013-04-23 08:51:00,
2013-04-23 04:56:00,62.9,62.9,30.03,NNE,18,1.6,3.4,100,0.00,,---,0.00,VWS V14.01,2013-04-23 08:56:00,
2013-04-23 05:01:00,62.2,62.2,30.03,North,8,2.6,2.6,100,0.00,,---,0.00,VWS V14.01,2013-04-23 09:01:00,
2013-04-23 05:06:00,62.9,62.9,30.03,NNW,347,5.3,5.5,100,0.00,,---,0.00,VWS V14.01,2013-04-23 09:06:00,
2013-04-23 05:11:00,63.0,63.0,30.03,NNE,13,4.0,6.8,100,0.00,,---,0.00,VWS V14.01,2013-04-23 09:11:00,
2013-04-23 05:16:00,62.6,62.6,30.03,NNE,31,5.8,6.0,100,0.00,,---,0.00,VWS V14.01,2013-04-23 09:16:00,
2013-04-23 05:21:00,61.9,61.9,30.03,NNW,347,2.5,2.7,100,0.00,,---,0.00,VWS V14.01,2013-04-23 09:21:00,
2013-04-23 05:26:00,62.2,62.2,30.03,North,352,3.6,3.6,100,0.00,,---,0.00,VWS V14.01,2013-04-23 09:26:00,
2013-04-23 05:31:00,62.6,62.6,30.03,North,356,3.9,4.7,100,0.00,,---,0.00,VWS V14.01,2013-04-23 09:31:00,
2013-04-23 05:36:00,62.8,62.8,30.03,North,1,3.5,3.5,100,0.00,,---,0.00,VWS V14.01,2013-04-23 09:36:00,
2013-04-23 05:41:00,62.5,62.5,30.04,North,3,4.5,5.8,100,0.00,,---,0.00,VWS V14.01,2013-04-23 09:41:00,
2013-04-23 05:46:00,61.9,61.9,30.04,NNE,21,2.7,2.7,100,0.00,,---,0.00,VWS V14.01,2013-04-23 09:46:00,
2013-04-23 05:51:00,62.6,62.6,30.04,North,11,3.9,4.0,100,0.00,,---,0.00,VWS V14.01,2013-04-23 09:51:00,
2013-04-23 05:56:00,62.4,62.4,30.03,North,353,2.5,2.7,100,0.00,,---,0.00,VWS V14.01,2013-04-23 09:56:00,
2013-04-23 06:01:00,62.6,62.6,30.04,North,7,6.2,6.2,100,0.00,,---,0.00,VWS V14.01,2013-04-23 10:01:00,
2013-04-23 06:06:00,61.9,61.9,30.04,NNE,14,1.7,5.0,100,0.00,,---,0.00,VWS V14.01,2013-04-23 10:06:00,
2013-04-23 06:11:00,61.8,61.8,30.04,North,352,5.6,5.6,100,0.00,,---,0.00,VWS V14.01,2013-04-23 10:11:00,
2013-04-23 06:16:00,62.0,62.0,30.04,North,8,4.0,4.0,100,0.00,,---,0.00,VWS V14.01,2013-04-23 10:16:00,
2013-04-23 06:21:00,62.2,62.2,30.04,North,349,6.5,6.5,100,0.00,,---,0.00,VWS V14.01,2013-04-23 10:21:00,
2013-04-23 06:26:00,61.8,61.8,30.05,North,11,4.8,4.8,100,0.00,,---,0.00,VWS V14.01,2013-04-23 10:26:00,
2013-04-23 06:31:00,62.3,62.3,30.05,North,11,3.5,3.5,100,0.00,,---,0.00,VWS V14.01,2013-04-23 10:31:00,
2013-04-23 06:36:00,62.1,62.1,30.05,NNE,15,3.9,4.0,100,0.00,,---,0.00,VWS V14.01,2013-04-23 10:36:00,
2013-04-23 06:41:00,61.8,61.8,30.05,North,353,6.4,6.4,100,0.00,,---,0.00,VWS V14.01,2013-04-23 10:41:00,
2013-04-23 06:46:00,61.7,61.7,30.05,North,8,4.5,9.4,100,0.00,,---,0.00,VWS V14.01,2013-04-23 10:46:00,
2013-04-23 06:51:00,62.2,62.2,30.05,North,356,3.5,5.3,100,0.00,,---,0.00,VWS V14.01,2013-04-23 10:51:00,
2013-04-23 06:56:00,62.2,62.2,30.05,North,359,2.8,5.4,100,0.00,,---,0.00,VWS V14.01,2013-04-23 10:56:00,
2013-04-23 07:01:00,61.6,61.6,30.05,NNW,346,5.2,7.7,100,0.00,,---,0.00,VWS V14.01,2013-04-23 11:01:00,
2013-04-23 07:06:00,61.3,61.3,30.06,North,11,4.5,8.5,100,0.00,,---,0.00,VWS V14.01,2013-04-23 11:06:00,
2013-04-23 07:11:00,61.4,61.4,30.06,North,7,4.2,6.3,100,0.00,,---,0.00,VWS V14.01,2013-04-23 11:11:00,
2013-04-23 07:16:00,61.6,61.6,30.06,North,8,2.3,5.0,100,0.00,,---,0.00,VWS V14.01,2013-04-23 11:16:00,
2013-04-23 07:21:00,62.0,62.0,30.06,North,353,4.4,7.4,100,0.00,,---,0.00,VWS V14.01,2013-04-23 11:21:00,
2013-04-23 07:26:00,62.4,62.4,30.06,NNE,14,5.4,8.8,100,0.00,,---,0.00,VWS V14.01,2013-04-23 11:26:00,
2013-04-23 07:31:00,61.7,61.7,30.07,NNE,13,4.3,7.3,100,0.00,,---,0.00,VWS V14.01,2013-04-23 11:31:00,
2013-04-23 07:36:00,62.3,62.3,30.07,NNW,347,6.6,7.2,100,0.00,,---,0.00,VWS V14.01,2013-04-23 11:36:00,
2013-04-23 07:41:00,62.7,62.7,30.07,North,7,6.0,6.4,100,0.00,,---,0.00,VWS V14.01,2013-04-23 11:41:00,
2013-04-23 07:46:00,62.2,62.2,30.07,North,4,3.7,6.5,100,0.00,,---,0.00,VWS V14.01,2013-04-23 11:46:00,
2013-04-23 07:51:00,62.0,62.0,30.07,North,8,6.6,9.5,100,0.00,,---,0.00,VWS V14.01,2013-04-23 11:51:00,
2013-04-23 07:56:00,62.1,62.1,30.07,NNE,17,7.3,10.7,100,0.00,,---,0.00,VWS V14.01,2013-04-23 11:56:00,
2013-04-23 08:01:00,63.2,63.2,30.07,North,359,4.3,5.8,100,0.00,,---,0.00,VWS V14.01,2013-04-23 12:01:00,
2013-04-23 08:06:00,63.1,63.1,30.08,North,359,6.8,9.6,100,0.00,,---,0.00,VWS V14.01,2013-04-23 12:06:00,
2013-04-23 08:11:00,63.0,63.0,30.08,North,11,6.5,9.9,100,0.00,,---,0.00,VWS V14.01,2013-04-23 12:11:00,
2013-04-23 08:16:00,63.0,63.0,30.08,ENE,66,7.4,8.1,100,0.00,,---,0.00,VWS V14.01,2013-04-23 12:16:00,
2013-04-23 08:21:00,63.7,63.7,30.08,NNE,21,6.7,7.8,100,0.00,,---,0.00,VWS V14.01,2013-04-23 12:21:00,
2013-04-23 08:26:00,64.3,64.3,30.08,North,3,6.0,8.4,100,0.00,,---,0.00,VWS V14.01,2013-04-23 12:26:00,
2013-04-23 08:31:00,64.4,64.4,30.09,NNE,15,8.2,12.9,100,0.00,,---,0.00,VWS V14.01,2013-04-23 12:31:00,
2013-04-23 08:36:00,64.1,64.1,30.09,NNE,14,4.9,8.0,100,0.00,,---,0.00,VWS V14.01,2013-04-23 12:36:00,
2013-04-23 08:41:00,64.7,64.7,30.09,NNE,20,4.8,6.2,100,0.00,,---,0.00,VWS V14.01,2013-04-23 12:41:00,
2013-04-23 08:46:00,64.9,64.7,30.09,NNE,22,6.5,9.8,99,0.00,,---,0.00,VWS V14.01,2013-04-23 12:46:00,
2013-04-23 08:51:00,65.2,64.9,30.09,NNE,18,5.8,8.5,99,0.00,,---,0.00,VWS V14.01,2013-04-23 12:51:00,
2013-04-23 08:56:00,65.7,65.3,30.09,NNE,22,6.2,7.5,99,0.00,,---,0.00,VWS V14.01,2013-04-23 12:56:00,
2013-04-23 09:01:00,65.8,65.2,30.09,NNE,21,0.8,7.3,98,0.00,,---,0.00,VWS V14.01,2013-04-23 13:01:00,
2013-04-23 09:06:00,66.0,65.2,30.09,NNE,25,5.0,9.3,97,0.00,,---,0.00,VWS V14.01,2013-04-23 13:06:00,
2013-04-23 09:11:00,67.1,66.1,30.09,NNW,343,7.0,10.3,97,0.00,,---,0.00,VWS V14.01,2013-04-23 13:11:00,
2013-04-23 09:16:00,67.5,66.3,30.10,North,11,5.8,7.4,96,0.00,,---,0.00,VWS V14.01,2013-04-23 13:16:00,
2013-04-23 09:21:00,68.3,66.9,30.10,North,6,5.4,11.6,95,0.00,,---,0.00,VWS V14.01,2013-04-23 13:21:00,
2013-04-23 09:26:00,68.8,67.0,30.10,NNE,13,3.1,7.3,94,0.00,,---,0.00,VWS V14.01,2013-04-23 13:26:00,
2013-04-23 09:31:00,69.1,66.7,30.10,ENE,69,8.1,10.9,92,0.00,,---,0.00,VWS V14.01,2013-04-23 13:31:00,
2013-04-23 09:36:00,68.8,65.2,30.10,North,10,8.9,11.1,88,0.00,,---,0.00,VWS V14.01,2013-04-23 13:36:00,
2013-04-23 09:41:00,69.7,65.8,30.10,North,4,6.4,10.1,88,0.00,,---,0.00,VWS V14.01,2013-04-23 13:41:00,
2013-04-23 09:46:00,70.5,65.9,30.10,SE,127,4.8,15.0,86,0.00,,---,0.00,VWS V14.01,2013-04-23 13:46:00,
2013-04-23 09:51:00,70.7,65.5,30.10,NNE,21,10.5,10.8,84,0.00,,---,0.00,VWS V14.01,2013-04-23 13:51:00,
2013-04-23 09:56:00,70.9,65.0,30.11,NE,39,1.4,4.6,82,0.00,,---,0.00,VWS V14.01,2013-04-23 13:56:00,
2013-04-23 10:01:00,71.7,65.0,30.11,NE,46,2.3,10.6,79,0.00,,---,0.00,VWS V14.01,2013-04-23 14:01:00,
2013-04-23 10:06:00,71.5,64.0,30.11,NNE,24,1.4,4.4,77,0.00,,---,0.00,VWS V14.01,2013-04-23 14:06:00,
2013-04-23 10:11:00,72.6,65.0,30.11,ENE,77,1.6,7.0,77,0.00,,---,0.00,VWS V14.01,2013-04-23 14:11:00,
2013-04-23 10:16:00,73.6,65.7,30.11,East,82,3.7,4.1,76,0.00,,---,0.00,VWS V14.01,2013-04-23 14:16:00,
2013-04-23 10:21:00,74.2,65.8,30.11,NE,51,1.4,4.7,75,0.00,,---,0.00,VWS V14.01,2013-04-23 14:21:00,
2013-04-23 10:26:00,73.5,64.1,30.11,North,10,1.9,8.0,72,0.00,,---,0.00,VWS V14.01,2013-04-23 14:26:00,
2013-04-23 10:31:00,73.7,64.3,30.11,North,3,6.2,10.1,72,0.00,,---,0.00,VWS V14.01,2013-04-23 14:31:00,
2013-04-23 10:36:00,73.8,64.3,30.12,NNE,15,5.7,9.8,72,0.00,,---,0.00,VWS V14.01,2013-04-23 14:36:00,
2013-04-23 10:41:00,72.6,63.7,30.12,East,94,5.7,9.1,74,0.00,,---,0.00,VWS V14.01,2013-04-23 14:41:00,
2013-04-23 10:46:00,73.6,64.0,30.12,NE,37,6.0,10.4,72,0.00,,---,0.00,VWS V14.01,2013-04-23 14:46:00,
2013-04-23 10:51:00,72.8,62.9,30.12,ENE,76,10.9,10.9,71,0.00,,---,0.00,VWS V14.01,2013-04-23 14:51:00,
2013-04-23 10:56:00,73.6,62.8,30.12,North,10,7.6,11.6,69,0.00,,---,0.00,VWS V14.01,2013-04-23 14:56:00,
2013-04-23 11:01:00,74.7,63.5,30.12,South,180,3.1,4.1,68,0.00,,---,0.00,VWS V14.01,2013-04-23 15:01:00,
2013-04-23 11:06:00,75.0,63.2,30.12,NE,53,3.4,8.1,67,0.00,,---,0.00,VWS V14.01,2013-04-23 15:06:00,
2013-04-23 11:11:00,76.0,63.1,30.12,NNE,13,5.8,12.6,64,0.00,,---,0.00,VWS V14.01,2013-04-23 15:11:00,
2013-04-23 11:16:00,75.4,62.2,30.12,NE,41,5.2,9.8,64,0.00,,---,0.00,VWS V14.01,2013-04-23 15:16:00,
2013-04-23 11:21:00,75.2,61.0,30.12,NE,35,5.5,11.1,61,0.00,,---,0.00,VWS V14.01,2013-04-23 15:21:00,
2013-04-23 11:26:00,76.6,63.0,30.12,NE,37,0.6,3.9,63,0.00,,---,0.00,VWS V14.01,2013-04-23 15:26:00,
2013-04-23 11:31:00,75.9,62.1,30.12,NNE,14,8.9,16.2,62,0.00,,---,0.00,VWS V14.01,2013-04-23 15:31:00,
2013-04-23 11:36:00,76.4,62.2,30.12,NNE,17,7.3,11.4,61,0.00,,---,0.00,VWS V14.01,2013-04-23 15:36:00,
2013-04-23 11:41:00,76.2,62.3,30.12,NNE,30,2.9,9.6,62,0.00,,---,0.00,VWS V14.01,2013-04-23 15:41:00,
2013-04-23 11:46:00,75.4,61.8,30.12,NNE,21,5.4,8.2,63,0.00,,---,0.00,VWS V14.01,2013-04-23 15:46:00,
2013-04-23 11:51:00,75.6,61.2,30.12,North,11,8.3,11.9,61,0.00,,---,0.00,VWS V14.01,2013-04-23 15:51:00,
2013-04-23 11:56:00,77.3,62.4,30.12,ENE,65,4.3,6.3,60,0.00,,---,0.00,VWS V14.01,2013-04-23 15:56:00,
2013-04-23 12:01:00,77.2,61.0,30.11,NNE,25,6.6,8.1,58,0.00,,---,0.00,VWS V14.01,2013-04-23 16:01:00,
2013-04-23 12:06:00,77.9,62.1,30.11,ENE,70,1.1,3.7,58,0.00,,---,0.00,VWS V14.01,2013-04-23 16:06:00,
2013-04-23 12:11:00,76.8,60.5,30.11,NNE,14,0.9,5.5,57,0.00,,---,0.00,VWS V14.01,2013-04-23 16:11:00,
2013-04-23 12:16:00,78.3,61.7,30.11,NNE,14,4.7,4.8,57,0.00,,---,0.00,VWS V14.01,2013-04-23 16:16:00,
2013-04-23 12:21:00,78.3,60.9,30.11,NNE,27,4.1,6.8,55,0.00,,---,0.00,VWS V14.01,2013-04-23 16:21:00,
2013-04-23 12:26:00,78.7,60.7,30.11,NE,44,2.4,4.5,54,0.00,,---,0.00,VWS V14.01,2013-04-23 16:26:00,
2013-04-23 12:31:00,78.2,59.9,30.10,ENE,62,0.9,5.5,53,0.00,,---,0.00,VWS V14.01,2013-04-23 16:31:00,
2013-04-23 12:36:00,79.1,61.2,30.10,NNE,24,8.3,9.4,54,0.00,,---,0.00,VWS V14.01,2013-04-23 16:36:00,
2013-04-23 12:41:00,78.2,60.2,30.10,NNE,31,2.2,5.0,54,0.00,,---,0.00,VWS V14.01,2013-04-23 16:41:00,
2013-04-23 12:46:00,78.0,60.8,30.10,NNE,15,2.1,2.9,55,0.00,,---,0.00,VWS V14.01,2013-04-23 16:46:00,
2013-04-23 12:51:00,78.8,60.4,30.10,East,79,1.7,3.2,53,0.00,,---,0.00,VWS V14.01,2013-04-23 16:51:00,
2013-04-23 12:55:00,78.2,60.2,30.10,NE,55,3.2,5.7,54,0.00,,---,0.00,VWS V14.01,2013-04-23 16:55:00,
2013-04-23 13:00:00,78.2,58.7,30.10,NE,49,2.7,8.1,51,0.00,,---,0.00,VWS V14.01,2013-04-23 17:00:00,
2013-04-23 13:05:00,79.4,59.3,30.10,NNE,21,2.3,5.1,50,0.00,,---,0.00,VWS V14.01,2013-04-23 17:05:00,
2013-04-23 13:10:00,79.8,59.5,30.10,East,79,0.9,6.5,50,0.00,,---,0.00,VWS V14.01,2013-04-23 17:10:00,
2013-04-23 13:15:00,79.3,58.1,30.09,East,89,4.9,8.1,48,0.00,,---,0.00,VWS V14.01,2013-04-23 17:15:00,
2013-04-23 13:20:00,80.0,58.1,30.09,NE,52,2.2,4.3,47,0.00,,---,0.00,VWS V14.01,2013-04-23 17:20:00,
2013-04-23 13:25:00,80.2,58.3,30.09,East,89,1.9,3.5,47,0.00,,---,0.00,VWS V14.01,2013-04-23 17:25:00,
2013-04-23 13:30:00,80.1,58.1,30.09,ENE,59,4.3,5.7,47,0.00,,---,0.00,VWS V14.01,2013-04-23 17:30:00,
2013-04-23 13:35:00,79.5,57.5,30.09,NNE,27,0.0,0.0,47,0.00,,---,0.00,VWS V14.01,2013-04-23 17:35:00,
2013-04-23 13:40:00,79.9,56.9,30.09,NNE,22,2.7,5.9,45,0.00,,---,0.00,VWS V14.01,2013-04-23 17:40:00,
2013-04-23 13:45:00,80.2,57.9,30.09,NE,42,0.7,4.7,46,0.00,,---,0.00,VWS V14.01,2013-04-23 17:45:00,
2013-04-23 13:50:00,80.5,56.7,30.09,NE,52,0.9,3.0,44,0.00,,---,0.00,VWS V14.01,2013-04-23 17:50:00,
2013-04-23 13:55:00,80.1,56.8,30.09,ENE,59,3.2,6.0,45,0.00,,---,0.00,VWS V14.01,2013-04-23 17:55:00,
2013-04-23 14:00:00,80.4,56.8,30.08,NNE,14,8.7,9.8,44,0.00,,---,0.00,VWS V14.01,2013-04-23 18:00:00,
2013-04-23 14:05:00,80.4,56.1,30.08,ENE,77,1.2,5.2,43,0.00,,---,0.00,VWS V14.01,2013-04-23 18:05:00,
2013-04-23 14:10:00,80.6,56.6,30.09,SE,125,2.3,4.0,44,0.00,,---,0.00,VWS V14.01,2013-04-23 18:10:00,
2013-04-23 14:16:00,80.6,56.2,30.09,ESE,105,1.1,3.6,43,0.00,,---,0.00,VWS V14.01,2013-04-23 18:16:00,
2013-04-23 14:21:00,80.4,55.1,30.09,ESE,114,3.7,7.3,42,0.00,,---,0.00,VWS V14.01,2013-04-23 18:21:00,
2013-04-23 14:25:00,79.4,55.4,30.08,SSE,153,1.9,10.9,44,0.00,,---,0.00,VWS V14.01,2013-04-23 18:25:00,
2013-04-23 14:30:00,79.9,55.2,30.08,NE,45,1.4,5.0,43,0.00,,---,0.00,VWS V14.01,2013-04-23 18:30:00,
2013-04-23 14:35:00,81.2,55.3,30.08,NE,46,4.7,9.1,41,0.00,,---,0.00,VWS V14.01,2013-04-23 18:35:00,
2013-04-23 14:40:00,81.4,55.7,30.08,NE,39,5.0,7.3,41,0.00,,---,0.00,VWS V14.01,2013-04-23 18:40:00,
2013-04-23 14:45:00,80.3,55.1,30.08,SE,146,1.2,2.2,42,0.00,,---,0.00,VWS V14.01,2013-04-23 18:45:00,
2013-04-23 14:50:00,81.4,55.1,30.08,North,10,5.7,8.1,40,0.00,,---,0.00,VWS V14.01,2013-04-23 18:50:00,
2013-04-23 14:55:00,80.7,55.2,30.08,NNE,32,5.6,5.6,42,0.00,,---,0.00,VWS V14.01,2013-04-23 18:55:00,
2013-04-23 15:00:00,81.1,55.4,30.08,NNE,13,1.7,2.8,41,0.00,,---,0.00,VWS V14.01,2013-04-23 19:00:00,
2013-04-23 15:05:00,81.2,55.3,30.08,North,359,3.7,3.9,41,0.00,,---,0.00,VWS V14.01,2013-04-23 19:05:00,
2013-04-23 15:10:00,81.7,55.2,30.08,ENE,75,3.6,4.2,40,0.00,,---,0.00,VWS V14.01,2013-04-23 19:10:00,
2013-04-23 15:15:00,80.7,54.4,30.08,NNE,31,3.2,13.7,40,0.00,,---,0.00,VWS V14.01,2013-04-23 19:15:00,
2013-04-23 15:20:00,80.8,54.8,30.08,North,8,8.9,9.5,41,0.00,,---,0.00,VWS V14.01,2013-04-23 19:20:00,
2013-04-23 15:25:00,80.0,53.9,30.08,NNE,21,1.1,4.7,40,0.00,,---,0.00,VWS V14.01,2013-04-23 19:25:00,
2013-04-23 15:30:00,80.0,54.0,30.08,NE,52,2.3,2.7,41,0.00,,---,0.00,VWS V14.01,2013-04-23 19:30:00,
2013-04-23 15:35:00,80.4,55.0,30.08,ENE,62,3.3,7.6,42,0.00,,---,0.00,VWS V14.01,2013-04-23 19:35:00,
2013-04-23 15:40:00,80.8,55.0,30.08,North,8,2.8,4.4,41,0.00,,---,0.00,VWS V14.01,2013-04-23 19:40:00,
2013-04-23 15:45:00,80.4,54.6,30.08,NE,34,3.7,5.5,41,0.00,,---,0.00,VWS V14.01,2013-04-23 19:45:00,
2013-04-23 15:50:00,81.4,55.2,30.07,North,3,7.6,8.6,41,0.00,,---,0.00,VWS V14.01,2013-04-23 19:50:00,
2013-04-23 15:55:00,80.9,55.9,30.07,NNE,18,1.8,3.4,42,0.00,,---,0.00,VWS V14.01,2013-04-23 19:55:00,
2013-04-23 16:00:00,80.5,54.5,30.07,SE,132,0.0,1.9,41,0.00,,---,0.00,VWS V14.01,2013-04-23 20:00:00,
2013-04-23 16:05:00,81.3,55.7,30.07,NE,45,5.2,6.2,42,0.00,,---,0.00,VWS V14.01,2013-04-23 20:05:00,
2013-04-23 16:10:00,81.0,55.2,30.07,East,84,0.6,5.2,41,0.00,,---,0.00,VWS V14.01,2013-04-23 20:10:00,
2013-04-23 16:15:00,80.6,55.5,30.07,NNE,18,5.2,8.8,42,0.00,,---,0.00,VWS V14.01,2013-04-23 20:15:00,
2013-04-23 16:20:00,81.3,56.8,30.07,North,11,1.3,2.9,43,0.00,,---,0.00,VWS V14.01,2013-04-23 20:20:00,
2013-04-23 16:25:00,80.7,55.6,30.07,North,359,9.6,12.2,42,0.00,,---,0.00,VWS V14.01,2013-04-23 20:25:00,
2013-04-23 16:31:00,80.5,55.4,30.07,NE,49,6.9,7.3,42,0.00,,---,0.00,VWS V14.01,2013-04-23 20:31:00,
2013-04-23 16:36:00,80.4,55.9,30.07,NE,39,7.5,11.2,43,0.00,,---,0.00,VWS V14.01,2013-04-23 20:36:00,
2013-04-23 16:41:00,81.4,57.8,30.07,ESE,110,3.6,3.6,45,0.00,,---,0.00,VWS V14.01,2013-04-23 20:41:00,
2013-04-23 16:46:00,80.5,56.0,30.07,NNE,17,2.2,4.4,43,0.00,,---,0.00,VWS V14.01,2013-04-23 20:46:00,
2013-04-23 16:51:00,81.4,57.0,30.07,East,86,1.2,2.7,43,0.00,,---,0.00,VWS V14.01,2013-04-23 20:51:00,
2013-04-23 16:56:00,81.4,57.5,30.07,ESE,114,3.1,6.3,44,0.00,,---,0.00,VWS V14.01,2013-04-23 20:56:00,
2013-04-23 17:01:00,80.5,56.4,30.07,NNE,25,2.5,8.2,44,0.00,,---,0.00,VWS V14.01,2013-04-23 21:01:00,
2013-04-23 17:06:00,80.7,56.8,30.07,NNE,25,3.5,9.9,44,0.00,,---,0.00,VWS V14.01,2013-04-23 21:06:00,
2013-04-23 17:11:00,80.5,56.9,30.06,NNE,31,1.6,6.6,44,0.00,,---,0.00,VWS V14.01,2013-04-23 21:11:00,
2013-04-23 17:16:00,80.2,56.7,30.07,NNE,21,1.2,3.1,45,0.00,,---,0.00,VWS V14.01,2013-04-23 21:16:00,
2013-04-23 17:21:00,79.2,56.5,30.07,NNE,22,5.7,9.2,46,0.00,,---,0.00,VWS V14.01,2013-04-23 21:21:00,
2013-04-23 17:26:00,79.7,56.9,30.07,NE,37,0.7,2.4,46,0.00,,---,0.00,VWS V14.01,2013-04-23 21:26:00,
2013-04-23 17:30:00,79.2,56.7,30.07,NNE,30,1.3,5.7,46,0.00,,---,0.00,VWS V14.01,2013-04-23 21:30:00,
2013-04-23 17:35:00,78.4,56.2,30.07,NNE,24,1.3,5.1,46,0.00,,---,0.00,VWS V14.01,2013-04-23 21:35:00,
2013-04-23 17:40:00,79.1,56.9,30.07,NE,48,4.0,8.1,47,0.00,,---,0.00,VWS V14.01,2013-04-23 21:40:00,
2013-04-23 17:45:00,77.8,56.5,30.07,WNW,291,4.3,5.0,48,0.00,,---,0.00,VWS V14.01,2013-04-23 21:45:00,
2013-04-23 17:50:00,78.8,57.8,30.07,NNE,32,9.7,9.7,48,0.00,,---,0.00,VWS V14.01,2013-04-23 21:50:00,
2013-04-23 17:55:00,78.4,58.0,30.07,NNE,24,4.5,6.9,50,0.00,,---,0.00,VWS V14.01,2013-04-23 21:55:00,
2013-04-23 18:00:00,77.1,56.3,30.07,North,10,2.5,4.7,49,0.00,,---,0.00,VWS V14.01,2013-04-23 22:00:00,
2013-04-23 18:05:00,77.5,57.1,30.08,NNE,18,5.4,10.5,49,0.00,,---,0.00,VWS V14.01,2013-04-23 22:05:00,
2013-04-23 18:10:00,77.5,57.3,30.08,ENE,73,2.1,3.5,50,0.00,,---,0.00,VWS V14.01,2013-04-23 22:10:00,
2013-04-23 18:15:00,76.2,56.2,30.08,NE,48,1.2,7.9,50,0.00,,---,0.00,VWS V14.01,2013-04-23 22:15:00,
2013-04-23 18:20:00,77.3,57.4,30.08,NNE,18,2.1,3.7,50,0.00,,---,0.00,VWS V14.01,2013-04-23 22:20:00,
2013-04-23 18:25:00,76.4,57.0,30.08,ENE,66,2.3,7.8,51,0.00,,---,0.00,VWS V14.01,2013-04-23 22:25:00,
2013-04-23 18:30:00,76.3,57.0,30.08,East,86,1.7,8.6,51,0.00,,---,0.00,VWS V14.01,2013-04-23 22:30:00,
2013-04-23 18:35:00,75.9,57.3,30.08,ENE,60,4.9,11.6,52,0.00,,---,0.00,VWS V14.01,2013-04-23 22:35:00,
2013-04-23 18:40:00,76.2,57.7,30.08,ENE,59,4.3,5.3,53,0.00,,---,0.00,VWS V14.01,2013-04-23 22:40:00,
2013-04-23 18:45:00,75.2,57.1,30.08,NE,56,4.5,4.8,53,0.00,,---,0.00,VWS V14.01,2013-04-23 22:45:00,
2013-04-23 18:50:00,75.3,57.3,30.08,North,7,6.2,8.2,54,0.00,,---,0.00,VWS V14.01,2013-04-23 22:50:00,
2013-04-23 18:55:00,75.0,57.7,30.09,North,11,7.5,9.8,55,0.00,,---,0.00,VWS V14.01,2013-04-23 22:55:00,
2013-04-23 19:00:00,74.6,57.5,30.08,ENE,75,0.5,2.2,55,0.00,,---,0.00,VWS V14.01,2013-04-23 23:00:00,
2013-04-23 19:05:00,74.8,58.0,30.09,East,100,6.4,6.4,56,0.00,,---,0.00,VWS V14.01,2013-04-23 23:05:00,
2013-04-23 19:10:00,74.8,58.6,30.09,East,91,3.8,7.6,57,0.00,,---,0.00,VWS V14.01,2013-04-23 23:10:00,
2013-04-23 19:15:00,73.7,58.2,30.09,North,7,3.2,3.4,58,0.00,,---,0.00,VWS V14.01,2013-04-23 23:15:00,
2013-04-23 19:20:00,74.0,58.8,30.08,NE,51,0.8,5.0,59,0.00,,---,0.00,VWS V14.01,2013-04-23 23:20:00,
2013-04-23 19:25:00,73.6,59.0,30.09,NE,41,3.0,7.0,60,0.00,,---,0.00,VWS V14.01,2013-04-23 23:25:00,
2013-04-23 19:30:00,72.3,58.5,30.09,NNE,24,0.0,4.7,62,0.00,,---,0.00,VWS V14.01,2013-04-23 23:30:00,
2013-04-23 19:35:00,72.8,59.3,30.09,NNE,15,5.8,11.2,63,0.00,,---,0.00,VWS V14.01,2013-04-23 23:35:00,
2013-04-23 19:41:00,73.0,59.5,30.09,NNE,25,0.0,4.3,63,0.00,,---,0.00,VWS V14.01,2013-04-23 23:41:00,
2013-04-23 19:46:00,72.8,59.6,30.09,SE,138,3.2,3.2,63,0.00,,---,0.00,VWS V14.01,2013-04-23 23:46:00,
2013-04-23 19:51:00,70.7,58.1,30.10,NNE,28,3.3,4.9,64,0.00,,---,0.00,VWS V14.01,2013-04-23 23:51:00,
2013-04-23 19:56:00,72.4,60.2,30.10,NNE,17,1.6,5.5,65,0.00,,---,0.00,VWS V14.01,2013-04-23 23:56:00,
2013-04-23 20:01:00,70.5,58.9,30.10,NNE,18,5.3,7.4,67,0.00,,---,0.00,VWS V14.01,2013-04-24 00:01:00,
2013-04-23 20:06:00,71.0,59.8,30.10,NNE,15,1.7,5.0,68,0.00,,---,0.00,VWS V14.01,2013-04-24 00:06:00,
2013-04-23 20:11:00,71.3,60.4,30.10,NE,34,0.5,1.6,68,0.00,,---,0.00,VWS V14.01,2013-04-24 00:11:00,
2013-04-23 20:16:00,70.6,60.0,30.11,East,101,0.0,1.2,69,0.00,,---,0.00,VWS V14.01,2013-04-24 00:16:00,
2013-04-23 20:21:00,70.2,59.7,30.11,NNE,14,0.6,0.6,69,0.00,,---,0.00,VWS V14.01,2013-04-24 00:21:00,
2013-04-23 20:26:00,70.9,60.4,30.11,ENE,58,1.2,1.2,70,0.00,,---,0.00,VWS V14.01,2013-04-24 00:26:00,
2013-04-23 20:31:00,70.0,59.7,30.11,NNE,27,1.8,6.0,70,0.00,,---,0.00,VWS V14.01,2013-04-24 00:31:00,
2013-04-23 20:36:00,70.2,60.0,30.12,East,96,2.1,7.5,70,0.00,,---,0.00,VWS V14.01,2013-04-24 00:36:00,
2013-04-23 20:41:00,70.1,60.2,30.12,NE,46,2.4,5.8,71,0.00,,---,0.00,VWS V14.01,2013-04-24 00:41:00,
2013-04-23 20:46:00,70.2,60.4,30.12,NNE,25,1.0,4.7,71,0.00,,---,0.00,VWS V14.01,2013-04-24 00:46:00,
2013-04-23 20:51:00,70.0,60.4,30.12,NNE,30,1.0,1.4,72,0.00,,---,0.00,VWS V14.01,2013-04-24 00:51:00,
2013-04-23 20:56:00,69.5,60.1,30.12,NNE,13,2.8,2.8,72,0.00,,---,0.00,VWS V14.01,2013-04-24 00:56:00,
2013-04-23 21:01:00,69.4,60.2,30.12,NNE,28,0.0,1.6,73,0.00,,---,0.00,VWS V14.01,2013-04-24 01:01:00,
2013-04-23 21:06:00,69.3,60.2,30.12,NE,35,2.2,4.5,73,0.00,,---,0.00,VWS V14.01,2013-04-24 01:06:00,
2013-04-23 21:11:00,68.9,60.0,30.12,NE,46,1.2,2.5,73,0.00,,---,0.00,VWS V14.01,2013-04-24 01:11:00,
2013-04-23 21:16:00,68.7,60.0,30.13,North,4,1.3,4.2,74,0.00,,---,0.00,VWS V14.01,2013-04-24 01:16:00,
2013-04-23 21:21:00,68.1,59.7,30.13,ENE,73,0.7,1.4,74,0.00,,---,0.00,VWS V14.01,2013-04-24 01:21:00,
2013-04-23 21:26:00,68.4,60.1,30.13,NE,45,2.1,2.1,75,0.00,,---,0.00,VWS V14.01,2013-04-24 01:26:00,
2013-04-23 21:31:00,68.5,60.4,30.13,East,82,0.9,1.6,75,0.00,,---,0.00,VWS V14.01,2013-04-24 01:31:00,
2013-04-23 21:36:00,67.9,60.0,30.13,East,97,0.9,1.1,76,0.00,,---,0.00,VWS V14.01,2013-04-24 01:36:00,
2013-04-23 21:41:00,67.9,60.2,30.13,NE,49,0.9,1.6,76,0.00,,---,0.00,VWS V14.01,2013-04-24 01:41:00,
2013-04-23 21:46:00,67.7,60.2,30.13,NNW,340,0.0,1.3,77,0.00,,---,0.00,VWS V14.01,2013-04-24 01:46:00,
2013-04-23 21:51:00,67.6,60.3,30.14,North,359,6.3,9.4,77,0.00,,---,0.00,VWS V14.01,2013-04-24 01:51:00,
2013-04-23 21:56:00,66.8,59.5,30.13,NNE,21,2.6,7.2,78,0.00,,---,0.00,VWS V14.01,2013-04-24 01:56:00,
2013-04-23 22:01:00,66.2,59.0,30.14,East,101,2.9,3.9,78,0.00,,---,0.00,VWS V14.01,2013-04-24 02:01:00,
2013-04-23 22:06:00,67.0,59.9,30.14,North,352,1.4,2.7,78,0.00,,---,0.00,VWS V14.01,2013-04-24 02:06:00,
2013-04-23 22:11:00,67.1,60.1,30.14,NE,37,1.5,3.2,78,0.00,,---,0.00,VWS V14.01,2013-04-24 02:11:00,
2013-04-23 22:15:00,66.3,59.5,30.14,NNE,24,0.6,1.6,79,0.00,,---,0.00,VWS V14.01,2013-04-24 02:15:00,
2013-04-23 22:20:00,67.0,60.3,30.14,NNE,20,2.2,4.8,79,0.00,,---,0.00,VWS V14.01,2013-04-24 02:20:00,
2013-04-23 22:26:00,66.4,59.9,30.14,NNE,21,1.6,3.2,80,0.00,,---,0.00,VWS V14.01,2013-04-24 02:26:00,
2013-04-23 22:31:00,66.7,60.3,30.13,NE,42,0.6,1.0,80,0.00,,---,0.00,VWS V14.01,2013-04-24 02:31:00,
2013-04-23 22:36:00,65.9,59.7,30.13,NNE,17,0.8,0.8,80,0.00,,---,0.00,VWS V14.01,2013-04-24 02:36:00,
2013-04-23 22:41:00,66.2,60.1,30.13,ENE,66,2.3,2.7,81,0.00,,---,0.00,VWS V14.01,2013-04-24 02:41:00,
2013-04-23 22:46:00,65.8,59.9,30.13,NNE,31,1.1,8.2,81,0.00,,---,0.00,VWS V14.01,2013-04-24 02:46:00,
2013-04-23 22:51:00,65.4,59.7,30.14,NNE,30,1.2,1.7,82,0.00,,---,0.00,VWS V14.01,2013-04-24 02:51:00,
2013-04-23 22:56:00,65.0,59.5,30.14,NE,35,0.4,1.1,82,0.00,,---,0.00,VWS V14.01,2013-04-24 02:56:00,
2013-04-23 23:01:00,64.7,59.3,30.14,NE,37,0.0,0.6,83,0.00,,---,0.00,VWS V14.01,2013-04-24 03:01:00,
2013-04-23 23:06:00,65.0,59.8,30.14,ENE,69,1.0,2.0,83,0.00,,---,0.00,VWS V14.01,2013-04-24 03:06:00,
2013-04-23 23:11:00,64.8,59.8,30.13,East,80,0.0,0.0,84,0.00,,---,0.00,VWS V14.01,2013-04-24 03:11:00,
2013-04-23 23:16:00,64.9,60.1,30.13,NNE,15,1.6,1.7,84,0.00,,---,0.00,VWS V14.01,2013-04-24 03:16:00,
2013-04-23 23:21:00,65.3,60.5,30.13,NE,46,3.3,4.0,84,0.00,,---,0.00,VWS V14.01,2013-04-24 03:21:00,
2013-04-23 23:26:00,65.0,60.3,30.13,NNE,22,2.7,2.9,85,0.00,,---,0.00,VWS V14.01,2013-04-24 03:26:00,
2013-04-23 23:32:00,64.6,60.1,30.13,NE,44,0.7,2.7,85,0.00,,---,0.00,VWS V14.01,2013-04-24 03:32:00,
2013-04-23 23:37:00,64.6,60.3,30.14,NE,55,2.4,2.9,86,0.00,,---,0.00,VWS V14.01,2013-04-24 03:37:00,
2013-04-23 23:42:00,64.9,60.7,30.13,NNE,24,0.8,4.6,86,0.00,,---,0.00,VWS V14.01,2013-04-24 03:42:00,
2013-04-23 23:47:00,64.7,60.6,30.14,NE,42,0.9,2.0,87,0.00,,---,0.00,VWS V14.01,2013-04-24 03:47:00,
2013-04-23 23:52:00,63.5,59.7,30.13,NNE,21,0.0,2.9,87,0.00,,---,0.00,VWS V14.01,2013-04-24 03:52:00,
2013-04-23 23:57:00,64.0,60.2,30.14,NNE,14,2.5,5.0,88,0.00,,---,0.00,VWS V14.01,2013-04-24 03:57:00,